sensor_id;sensor_type;location;lat;lon;timestamp;P1;durP1;ratioP1;P2;durP2;ratioP2
7835;SDS011;3963;42.658;23.298;2023-09-18T00:00:49;20.67;;;14.37;;
7835;SDS011;3963;42.658;23.298;2023-09-18T00:03:17;20.70;;;13.40;;
7835;SDS011;3963;42.658;23.298;2023-09-18T00:05:45;21.20;;;13.60;;
7835;SDS011;3963;42.658;23.298;2023-09-18T00:08:13;21.00;;;14.07;;
7835;SDS011;3963;42.658;23.298;2023-09-18T00:10:40;20.57;;;14.47;;
7835;SDS011;3963;42.658;23.298;2023-09-18T00:13:07;23.63;;;14.53;;
7835;SDS011;3963;42.658;23.298;2023-09-18T00:15:35;20.07;;;13.77;;
7835;SDS011;3963;42.658;23.298;2023-09-18T00:18:03;20.37;;;13.77;;
7835;SDS011;3963;42.658;23.298;2023-09-18T00:20:30;17.90;;;13.27;;
7835;SDS011;3963;42.658;23.298;2023-09-18T00:22:57;20.20;;;14.10;;
7835;SDS011;3963;42.658;23.298;2023-09-18T00:25:24;17.90;;;13.87;;
7835;SDS011;3963;42.658;23.298;2023-09-18T00:27:51;18.83;;;13.73;;
7835;SDS011;3963;42.658;23.298;2023-09-18T00:30:17;22.00;;;15.07;;
7835;SDS011;3963;42.658;23.298;2023-09-18T00:32:46;18.93;;;13.70;;
7835;SDS011;3963;42.658;23.298;2023-09-18T00:35:15;21.67;;;14.57;;
7835;SDS011;3963;42.658;23.298;2023-09-18T00:37:41;23.00;;;15.00;;
7835;SDS011;3963;42.658;23.298;2023-09-18T00:40:09;20.63;;;14.20;;
7835;SDS011;3963;42.658;23.298;2023-09-18T00:42:37;20.33;;;13.73;;
7835;SDS011;3963;42.658;23.298;2023-09-18T00:45:04;21.33;;;14.57;;
7835;SDS011;3963;42.658;23.298;2023-09-18T00:47:34;18.87;;;14.17;;
7835;SDS011;3963;42.658;23.298;2023-09-18T00:50:04;25.97;;;15.23;;
7835;SDS011;3963;42.658;23.298;2023-09-18T00:52:34;20.00;;;14.70;;
7835;SDS011;3963;42.658;23.298;2023-09-18T00:55:02;20.73;;;14.73;;
7835;SDS011;3963;42.658;23.298;2023-09-18T00:57:29;23.53;;;15.23;;
7835;SDS011;3963;42.658;23.298;2023-09-18T00:59:56;20.47;;;15.27;;
7835;SDS011;3963;42.658;23.298;2023-09-18T01:02:23;22.10;;;14.97;;
7835;SDS011;3963;42.658;23.298;2023-09-18T01:04:50;22.60;;;14.37;;
7835;SDS011;3963;42.658;23.298;2023-09-18T01:07:18;23.00;;;15.67;;
7835;SDS011;3963;42.658;23.298;2023-09-18T01:09:45;22.67;;;14.53;;
7835;SDS011;3963;42.658;23.298;2023-09-18T01:12:15;22.47;;;15.27;;
7835;SDS011;3963;42.658;23.298;2023-09-18T01:14:48;22.63;;;15.37;;
7835;SDS011;3963;42.658;23.298;2023-09-18T01:17:23;25.50;;;16.17;;
7835;SDS011;3963;42.658;23.298;2023-09-18T01:19:50;20.83;;;14.60;;
7835;SDS011;3963;42.658;23.298;2023-09-18T01:22:19;24.87;;;15.33;;
7835;SDS011;3963;42.658;23.298;2023-09-18T01:24:48;19.33;;;14.57;;
7835;SDS011;3963;42.658;23.298;2023-09-18T01:27:15;20.43;;;14.57;;
7835;SDS011;3963;42.658;23.298;2023-09-18T01:29:43;24.60;;;16.10;;
7835;SDS011;3963;42.658;23.298;2023-09-18T01:32:10;21.23;;;15.30;;
7835;SDS011;3963;42.658;23.298;2023-09-18T01:34:37;24.00;;;16.23;;
7835;SDS011;3963;42.658;23.298;2023-09-18T01:37:07;23.13;;;15.40;;
7835;SDS011;3963;42.658;23.298;2023-09-18T01:39:36;24.03;;;15.70;;
7835;SDS011;3963;42.658;23.298;2023-09-18T01:42:06;22.50;;;16.53;;
7835;SDS011;3963;42.658;23.298;2023-09-18T01:44:35;28.73;;;16.17;;
7835;SDS011;3963;42.658;23.298;2023-09-18T01:47:03;22.77;;;15.40;;
7835;SDS011;3963;42.658;23.298;2023-09-18T01:49:32;26.33;;;17.30;;
7835;SDS011;3963;42.658;23.298;2023-09-18T01:51:59;22.53;;;15.27;;
7835;SDS011;3963;42.658;23.298;2023-09-18T01:54:26;22.63;;;16.07;;
7835;SDS011;3963;42.658;23.298;2023-09-18T01:56:53;20.33;;;14.90;;
7835;SDS011;3963;42.658;23.298;2023-09-18T01:59:22;22.37;;;15.80;;
7835;SDS011;3963;42.658;23.298;2023-09-18T02:01:49;20.13;;;14.87;;
7835;SDS011;3963;42.658;23.298;2023-09-18T02:04:16;24.23;;;16.00;;
7835;SDS011;3963;42.658;23.298;2023-09-18T02:06:44;20.57;;;15.70;;
7835;SDS011;3963;42.658;23.298;2023-09-18T02:09:11;22.67;;;15.43;;
7835;SDS011;3963;42.658;23.298;2023-09-18T02:11:38;19.17;;;14.77;;
7835;SDS011;3963;42.658;23.298;2023-09-18T02:14:06;20.40;;;15.53;;
7835;SDS011;3963;42.658;23.298;2023-09-18T02:16:36;19.97;;;14.50;;
7835;SDS011;3963;42.658;23.298;2023-09-18T02:19:06;23.90;;;16.67;;
7835;SDS011;3963;42.658;23.298;2023-09-18T02:21:33;20.93;;;16.23;;
7835;SDS011;3963;42.658;23.298;2023-09-18T02:24:01;23.83;;;16.57;;
7835;SDS011;3963;42.658;23.298;2023-09-18T02:26:28;25.20;;;16.63;;
7835;SDS011;3963;42.658;23.298;2023-09-18T02:28:57;25.87;;;16.97;;
7835;SDS011;3963;42.658;23.298;2023-09-18T02:31:25;24.37;;;17.10;;
7835;SDS011;3963;42.658;23.298;2023-09-18T02:33:53;22.73;;;16.90;;
7835;SDS011;3963;42.658;23.298;2023-09-18T02:36:20;27.00;;;18.73;;
7835;SDS011;3963;42.658;23.298;2023-09-18T02:38:47;25.07;;;18.13;;
7835;SDS011;3963;42.658;23.298;2023-09-18T02:41:13;28.23;;;19.10;;
7835;SDS011;3963;42.658;23.298;2023-09-18T02:43:40;31.73;;;21.77;;
7835;SDS011;3963;42.658;23.298;2023-09-18T02:46:07;29.27;;;21.63;;
7835;SDS011;3963;42.658;23.298;2023-09-18T02:48:35;28.73;;;19.90;;
7835;SDS011;3963;42.658;23.298;2023-09-18T02:51:03;33.80;;;21.93;;
7835;SDS011;3963;42.658;23.298;2023-09-18T02:53:30;32.50;;;21.37;;
7835;SDS011;3963;42.658;23.298;2023-09-18T02:55:59;27.50;;;20.30;;
7835;SDS011;3963;42.658;23.298;2023-09-18T02:58:26;32.37;;;22.23;;
7835;SDS011;3963;42.658;23.298;2023-09-18T03:00:55;30.47;;;20.43;;
7835;SDS011;3963;42.658;23.298;2023-09-18T03:03:23;30.23;;;21.10;;
7835;SDS011;3963;42.658;23.298;2023-09-18T03:05:50;29.93;;;21.23;;
7835;SDS011;3963;42.658;23.298;2023-09-18T03:08:19;31.10;;;21.47;;
7835;SDS011;3963;42.658;23.298;2023-09-18T03:10:45;35.17;;;23.93;;
7835;SDS011;3963;42.658;23.298;2023-09-18T03:13:14;37.73;;;24.83;;
7835;SDS011;3963;42.658;23.298;2023-09-18T03:15:44;31.33;;;23.73;;
7835;SDS011;3963;42.658;23.298;2023-09-18T03:18:12;33.33;;;23.80;;
7835;SDS011;3963;42.658;23.298;2023-09-18T03:20:39;31.30;;;22.40;;
7835;SDS011;3963;42.658;23.298;2023-09-18T03:23:05;35.73;;;23.70;;
7835;SDS011;3963;42.658;23.298;2023-09-18T03:25:34;32.60;;;23.97;;
7835;SDS011;3963;42.658;23.298;2023-09-18T03:28:02;30.00;;;22.13;;
7835;SDS011;3963;42.658;23.298;2023-09-18T03:30:29;28.77;;;20.93;;
7835;SDS011;3963;42.658;23.298;2023-09-18T03:32:56;29.80;;;21.80;;
7835;SDS011;3963;42.658;23.298;2023-09-18T03:35:23;30.43;;;22.33;;
7835;SDS011;3963;42.658;23.298;2023-09-18T03:37:50;32.10;;;21.90;;
7835;SDS011;3963;42.658;23.298;2023-09-18T03:40:19;28.73;;;21.27;;
7835;SDS011;3963;42.658;23.298;2023-09-18T03:42:48;31.97;;;20.90;;
7835;SDS011;3963;42.658;23.298;2023-09-18T03:45:15;34.93;;;23.50;;
7835;SDS011;3963;42.658;23.298;2023-09-18T03:47:44;34.13;;;22.33;;
7835;SDS011;3963;42.658;23.298;2023-09-18T03:50:11;31.80;;;22.57;;
7835;SDS011;3963;42.658;23.298;2023-09-18T03:52:38;33.13;;;22.43;;
7835;SDS011;3963;42.658;23.298;2023-09-18T03:55:06;34.47;;;23.03;;
7835;SDS011;3963;42.658;23.298;2023-09-18T03:57:33;34.50;;;22.13;;
7835;SDS011;3963;42.658;23.298;2023-09-18T04:00:03;32.10;;;21.60;;
7835;SDS011;3963;42.658;23.298;2023-09-18T04:02:32;34.23;;;23.20;;
7835;SDS011;3963;42.658;23.298;2023-09-18T04:05:00;31.47;;;21.50;;
7835;SDS011;3963;42.658;23.298;2023-09-18T04:07:27;36.87;;;22.83;;
7835;SDS011;3963;42.658;23.298;2023-09-18T04:09:54;31.00;;;21.33;;
7835;SDS011;3963;42.658;23.298;2023-09-18T04:12:21;29.97;;;21.37;;
7835;SDS011;3963;42.658;23.298;2023-09-18T04:14:48;32.93;;;22.37;;
7835;SDS011;3963;42.658;23.298;2023-09-18T04:17:16;34.70;;;22.83;;
7835;SDS011;3963;42.658;23.298;2023-09-18T04:19:43;30.37;;;21.33;;
7835;SDS011;3963;42.658;23.298;2023-09-18T04:22:10;33.37;;;24.13;;
7835;SDS011;3963;42.658;23.298;2023-09-18T04:24:38;36.73;;;22.47;;
7835;SDS011;3963;42.658;23.298;2023-09-18T04:27:06;34.43;;;22.30;;
7835;SDS011;3963;42.658;23.298;2023-09-18T04:29:33;31.80;;;21.27;;
7835;SDS011;3963;42.658;23.298;2023-09-18T04:32:01;31.83;;;21.37;;
7835;SDS011;3963;42.658;23.298;2023-09-18T04:34:30;32.60;;;21.37;;
7835;SDS011;3963;42.658;23.298;2023-09-18T04:36:57;33.53;;;21.77;;
7835;SDS011;3963;42.658;23.298;2023-09-18T04:39:24;31.70;;;21.43;;
7835;SDS011;3963;42.658;23.298;2023-09-18T04:41:52;32.53;;;22.47;;
7835;SDS011;3963;42.658;23.298;2023-09-18T04:44:18;33.70;;;21.90;;
7835;SDS011;3963;42.658;23.298;2023-09-18T04:46:45;38.07;;;21.63;;
7835;SDS011;3963;42.658;23.298;2023-09-18T04:49:13;33.07;;;21.73;;
7835;SDS011;3963;42.658;23.298;2023-09-18T04:51:42;36.73;;;22.90;;
7835;SDS011;3963;42.658;23.298;2023-09-18T04:54:09;35.77;;;22.87;;
7835;SDS011;3963;42.658;23.298;2023-09-18T04:56:36;33.33;;;22.80;;
7835;SDS011;3963;42.658;23.298;2023-09-18T04:59:03;37.40;;;23.63;;
7835;SDS011;3963;42.658;23.298;2023-09-18T05:01:31;37.40;;;22.70;;
7835;SDS011;3963;42.658;23.298;2023-09-18T05:03:58;34.47;;;22.13;;
7835;SDS011;3963;42.658;23.298;2023-09-18T05:06:25;37.67;;;22.10;;
7835;SDS011;3963;42.658;23.298;2023-09-18T05:08:53;34.67;;;22.47;;
7835;SDS011;3963;42.658;23.298;2023-09-18T05:11:20;36.70;;;23.67;;
7835;SDS011;3963;42.658;23.298;2023-09-18T05:13:47;40.50;;;24.77;;
7835;SDS011;3963;42.658;23.298;2023-09-18T05:16:14;40.83;;;23.40;;
7835;SDS011;3963;42.658;23.298;2023-09-18T05:18:41;37.23;;;23.33;;
7835;SDS011;3963;42.658;23.298;2023-09-18T05:21:08;33.43;;;23.27;;
7835;SDS011;3963;42.658;23.298;2023-09-18T05:23:36;36.53;;;24.03;;
7835;SDS011;3963;42.658;23.298;2023-09-18T05:26:04;35.70;;;25.30;;
7835;SDS011;3963;42.658;23.298;2023-09-18T05:28:32;34.67;;;23.63;;
7835;SDS011;3963;42.658;23.298;2023-09-18T05:30:58;37.13;;;25.00;;
7835;SDS011;3963;42.658;23.298;2023-09-18T05:33:25;35.97;;;22.83;;
7835;SDS011;3963;42.658;23.298;2023-09-18T05:35:52;32.43;;;22.73;;
7835;SDS011;3963;42.658;23.298;2023-09-18T05:38:19;35.33;;;21.93;;
7835;SDS011;3963;42.658;23.298;2023-09-18T05:40:46;32.40;;;21.83;;
7835;SDS011;3963;42.658;23.298;2023-09-18T05:43:14;35.80;;;20.93;;
7835;SDS011;3963;42.658;23.298;2023-09-18T05:45:43;32.17;;;20.50;;
7835;SDS011;3963;42.658;23.298;2023-09-18T05:48:09;34.00;;;21.27;;
7835;SDS011;3963;42.658;23.298;2023-09-18T05:50:36;29.60;;;20.87;;
7835;SDS011;3963;42.658;23.298;2023-09-18T05:53:06;32.97;;;22.63;;
7835;SDS011;3963;42.658;23.298;2023-09-18T05:55:33;29.53;;;21.37;;
7835;SDS011;3963;42.658;23.298;2023-09-18T05:58:00;34.10;;;21.93;;
7835;SDS011;3963;42.658;23.298;2023-09-18T06:00:29;33.97;;;22.90;;
7835;SDS011;3963;42.658;23.298;2023-09-18T06:02:56;30.90;;;21.93;;
7835;SDS011;3963;42.658;23.298;2023-09-18T06:05:23;33.80;;;22.50;;
7835;SDS011;3963;42.658;23.298;2023-09-18T06:07:51;30.63;;;21.40;;
7835;SDS011;3963;42.658;23.298;2023-09-18T06:10:18;29.63;;;20.67;;
7835;SDS011;3963;42.658;23.298;2023-09-18T06:12:45;31.67;;;20.63;;
7835;SDS011;3963;42.658;23.298;2023-09-18T06:15:11;32.97;;;21.00;;
7835;SDS011;3963;42.658;23.298;2023-09-18T06:17:41;29.77;;;20.23;;
7835;SDS011;3963;42.658;23.298;2023-09-18T06:20:09;28.17;;;19.17;;
7835;SDS011;3963;42.658;23.298;2023-09-18T06:22:38;29.20;;;20.20;;
7835;SDS011;3963;42.658;23.298;2023-09-18T06:25:05;29.20;;;19.43;;
7835;SDS011;3963;42.658;23.298;2023-09-18T06:27:35;29.33;;;20.63;;
7835;SDS011;3963;42.658;23.298;2023-09-18T06:30:03;28.50;;;19.30;;
7835;SDS011;3963;42.658;23.298;2023-09-18T06:32:30;28.87;;;20.70;;
7835;SDS011;3963;42.658;23.298;2023-09-18T06:34:58;26.73;;;18.93;;
7835;SDS011;3963;42.658;23.298;2023-09-18T06:37:25;32.33;;;20.67;;
7835;SDS011;3963;42.658;23.298;2023-09-18T06:39:52;31.17;;;21.10;;
7835;SDS011;3963;42.658;23.298;2023-09-18T06:42:19;29.97;;;19.37;;
7835;SDS011;3963;42.658;23.298;2023-09-18T06:44:46;27.77;;;19.10;;
7835;SDS011;3963;42.658;23.298;2023-09-18T06:47:12;34.30;;;19.57;;
7835;SDS011;3963;42.658;23.298;2023-09-18T06:49:40;25.97;;;19.70;;
7835;SDS011;3963;42.658;23.298;2023-09-18T06:52:09;28.27;;;19.17;;
7835;SDS011;3963;42.658;23.298;2023-09-18T06:54:36;27.83;;;19.07;;
7835;SDS011;3963;42.658;23.298;2023-09-18T06:57:03;32.40;;;20.83;;
7835;SDS011;3963;42.658;23.298;2023-09-18T06:59:30;31.30;;;19.93;;
7835;SDS011;3963;42.658;23.298;2023-09-18T07:01:59;30.27;;;19.43;;
7835;SDS011;3963;42.658;23.298;2023-09-18T07:04:26;30.03;;;18.50;;
7835;SDS011;3963;42.658;23.298;2023-09-18T07:06:53;28.80;;;18.60;;
7835;SDS011;3963;42.658;23.298;2023-09-18T07:09:23;26.30;;;16.80;;
7835;SDS011;3963;42.658;23.298;2023-09-18T07:11:51;21.20;;;16.13;;
7835;SDS011;3963;42.658;23.298;2023-09-18T07:14:17;24.70;;;16.67;;
7835;SDS011;3963;42.658;23.298;2023-09-18T07:16:44;25.03;;;16.90;;
7835;SDS011;3963;42.658;23.298;2023-09-18T07:19:11;27.87;;;16.97;;
7835;SDS011;3963;42.658;23.298;2023-09-18T07:21:41;23.53;;;14.90;;
7835;SDS011;3963;42.658;23.298;2023-09-18T07:24:09;19.90;;;15.00;;
7835;SDS011;3963;42.658;23.298;2023-09-18T07:26:42;21.60;;;16.30;;
7835;SDS011;3963;42.658;23.298;2023-09-18T07:29:10;22.77;;;15.63;;
7835;SDS011;3963;42.658;23.298;2023-09-18T07:31:36;23.93;;;16.77;;
7835;SDS011;3963;42.658;23.298;2023-09-18T07:34:03;23.97;;;15.23;;
7835;SDS011;3963;42.658;23.298;2023-09-18T07:36:30;22.37;;;16.83;;
7835;SDS011;3963;42.658;23.298;2023-09-18T07:38:57;20.53;;;14.50;;
7835;SDS011;3963;42.658;23.298;2023-09-18T07:41:24;20.13;;;13.87;;
7835;SDS011;3963;42.658;23.298;2023-09-18T07:43:52;23.30;;;15.07;;
7835;SDS011;3963;42.658;23.298;2023-09-18T07:46:18;23.77;;;14.80;;
7835;SDS011;3963;42.658;23.298;2023-09-18T07:48:45;23.87;;;14.77;;
7835;SDS011;3963;42.658;23.298;2023-09-18T07:51:12;21.30;;;14.27;;
7835;SDS011;3963;42.658;23.298;2023-09-18T07:53:41;20.07;;;14.80;;
7835;SDS011;3963;42.658;23.298;2023-09-18T07:56:08;19.33;;;14.70;;
7835;SDS011;3963;42.658;23.298;2023-09-18T07:58:35;21.87;;;14.03;;
7835;SDS011;3963;42.658;23.298;2023-09-18T08:01:05;18.57;;;14.90;;
7835;SDS011;3963;42.658;23.298;2023-09-18T08:03:34;23.70;;;15.63;;
7835;SDS011;3963;42.658;23.298;2023-09-18T08:06:01;19.87;;;14.30;;
7835;SDS011;3963;42.658;23.298;2023-09-18T08:08:29;21.50;;;14.43;;
7835;SDS011;3963;42.658;23.298;2023-09-18T08:10:58;20.43;;;14.17;;
7835;SDS011;3963;42.658;23.298;2023-09-18T08:13:26;22.57;;;13.70;;
7835;SDS011;3963;42.658;23.298;2023-09-18T08:15:54;18.77;;;13.03;;
7835;SDS011;3963;42.658;23.298;2023-09-18T08:18:22;15.60;;;12.40;;
7835;SDS011;3963;42.658;23.298;2023-09-18T08:20:51;20.73;;;13.63;;
7835;SDS011;3963;42.658;23.298;2023-09-18T08:23:18;15.93;;;11.80;;
7835;SDS011;3963;42.658;23.298;2023-09-18T08:25:45;17.77;;;13.10;;
7835;SDS011;3963;42.658;23.298;2023-09-18T08:28:13;18.83;;;14.33;;
7835;SDS011;3963;42.658;23.298;2023-09-18T08:30:41;20.50;;;13.07;;
7835;SDS011;3963;42.658;23.298;2023-09-18T08:33:12;18.30;;;13.07;;
7835;SDS011;3963;42.658;23.298;2023-09-18T08:35:40;18.87;;;12.67;;
7835;SDS011;3963;42.658;23.298;2023-09-18T08:38:07;16.83;;;12.10;;
7835;SDS011;3963;42.658;23.298;2023-09-18T08:40:34;15.33;;;12.40;;
7835;SDS011;3963;42.658;23.298;2023-09-18T08:43:01;17.93;;;13.47;;
7835;SDS011;3963;42.658;23.298;2023-09-18T08:45:31;21.90;;;13.50;;
7835;SDS011;3963;42.658;23.298;2023-09-18T08:48:04;20.53;;;14.07;;
7835;SDS011;3963;42.658;23.298;2023-09-18T08:50:32;15.37;;;13.53;;
7835;SDS011;3963;42.658;23.298;2023-09-18T08:53:00;15.47;;;11.63;;
7835;SDS011;3963;42.658;23.298;2023-09-18T08:55:28;17.60;;;11.93;;
7835;SDS011;3963;42.658;23.298;2023-09-18T08:57:55;11.37;;;9.30;;
7835;SDS011;3963;42.658;23.298;2023-09-18T09:00:25;15.37;;;11.03;;
7835;SDS011;3963;42.658;23.298;2023-09-18T09:02:52;12.30;;;10.13;;
7835;SDS011;3963;42.658;23.298;2023-09-18T09:05:19;13.73;;;9.50;;
7835;SDS011;3963;42.658;23.298;2023-09-18T09:07:46;15.90;;;10.40;;
7835;SDS011;3963;42.658;23.298;2023-09-18T09:10:15;13.77;;;10.77;;
7835;SDS011;3963;42.658;23.298;2023-09-18T09:12:52;13.33;;;10.60;;
7835;SDS011;3963;42.658;23.298;2023-09-18T09:15:20;15.97;;;9.93;;
7835;SDS011;3963;42.658;23.298;2023-09-18T09:17:48;15.00;;;11.00;;
7835;SDS011;3963;42.658;23.298;2023-09-18T09:20:15;15.93;;;10.40;;
7835;SDS011;3963;42.658;23.298;2023-09-18T09:22:43;14.05;;;11.27;;
7835;SDS011;3963;42.658;23.298;2023-09-18T09:25:25;10.15;;;9.05;;
7835;SDS011;3963;42.658;23.298;2023-09-18T09:27:53;13.55;;;9.43;;
7835;SDS011;3963;42.658;23.298;2023-09-18T09:30:21;9.55;;;7.63;;
7835;SDS011;3963;42.658;23.298;2023-09-18T09:32:49;9.75;;;7.25;;
7835;SDS011;3963;42.658;23.298;2023-09-18T09:35:21;10.98;;;7.75;;
7835;SDS011;3963;42.658;23.298;2023-09-18T09:37:52;12.60;;;7.95;;
7835;SDS011;3963;42.658;23.298;2023-09-18T09:40:20;11.60;;;8.73;;
7835;SDS011;3963;42.658;23.298;2023-09-18T09:42:52;12.38;;;8.70;;
7835;SDS011;3963;42.658;23.298;2023-09-18T09:45:25;10.80;;;7.25;;
7835;SDS011;3963;42.658;23.298;2023-09-18T09:47:53;9.25;;;7.03;;
7835;SDS011;3963;42.658;23.298;2023-09-18T09:50:20;11.88;;;7.78;;
7835;SDS011;3963;42.658;23.298;2023-09-18T09:52:47;11.13;;;7.55;;
7835;SDS011;3963;42.658;23.298;2023-09-18T09:55:19;10.50;;;8.23;;
7835;SDS011;3963;42.658;23.298;2023-09-18T09:57:53;10.85;;;8.57;;
7835;SDS011;3963;42.658;23.298;2023-09-18T10:00:22;10.48;;;7.85;;
7835;SDS011;3963;42.658;23.298;2023-09-18T10:02:58;10.73;;;8.05;;
7835;SDS011;3963;42.658;23.298;2023-09-18T10:05:28;10.90;;;7.68;;
7835;SDS011;3963;42.658;23.298;2023-09-18T10:07:58;9.20;;;7.82;;
7835;SDS011;3963;42.658;23.298;2023-09-18T10:10:28;9.15;;;7.30;;
7835;SDS011;3963;42.658;23.298;2023-09-18T10:12:59;11.70;;;9.23;;
7835;SDS011;3963;42.658;23.298;2023-09-18T10:15:27;12.95;;;9.45;;
7835;SDS011;3963;42.658;23.298;2023-09-18T10:17:56;13.07;;;8.82;;
7835;SDS011;3963;42.658;23.298;2023-09-18T10:20:24;9.73;;;7.53;;
7835;SDS011;3963;42.658;23.298;2023-09-18T10:22:52;11.40;;;8.10;;
7835;SDS011;3963;42.658;23.298;2023-09-18T10:25:23;10.80;;;8.23;;
7835;SDS011;3963;42.658;23.298;2023-09-18T10:27:53;11.95;;;8.27;;
7835;SDS011;3963;42.658;23.298;2023-09-18T10:30:24;9.25;;;7.88;;
7835;SDS011;3963;42.658;23.298;2023-09-18T10:32:51;11.80;;;7.75;;
7835;SDS011;3963;42.658;23.298;2023-09-18T10:35:18;10.60;;;7.78;;
7835;SDS011;3963;42.658;23.298;2023-09-18T10:37:46;9.48;;;8.38;;
7835;SDS011;3963;42.658;23.298;2023-09-18T10:40:16;10.80;;;7.57;;
7835;SDS011;3963;42.658;23.298;2023-09-18T10:42:43;10.13;;;7.35;;
7835;SDS011;3963;42.658;23.298;2023-09-18T10:45:12;10.38;;;7.80;;
7835;SDS011;3963;42.658;23.298;2023-09-18T10:47:43;8.95;;;7.47;;
7835;SDS011;3963;42.658;23.298;2023-09-18T10:50:13;8.88;;;7.20;;
7835;SDS011;3963;42.658;23.298;2023-09-18T10:52:49;9.80;;;6.68;;
7835;SDS011;3963;42.658;23.298;2023-09-18T10:55:16;7.25;;;6.32;;
7835;SDS011;3963;42.658;23.298;2023-09-18T10:57:49;7.75;;;6.18;;
7835;SDS011;3963;42.658;23.298;2023-09-18T11:00:17;9.95;;;7.05;;
7835;SDS011;3963;42.658;23.298;2023-09-18T11:02:50;14.55;;;7.15;;
7835;SDS011;3963;42.658;23.298;2023-09-18T11:05:30;7.93;;;6.90;;
7835;SDS011;3963;42.658;23.298;2023-09-18T11:11:00;11.35;;;7.03;;
7835;SDS011;3963;42.658;23.298;2023-09-18T11:13:34;8.18;;;6.50;;
7835;SDS011;3963;42.658;23.298;2023-09-18T11:16:12;7.03;;;6.28;;
7835;SDS011;3963;42.658;23.298;2023-09-18T11:18:44;9.85;;;6.28;;
7835;SDS011;3963;42.658;23.298;2023-09-18T11:21:14;7.03;;;6.28;;
7835;SDS011;3963;42.658;23.298;2023-09-18T11:23:43;7.90;;;6.25;;
7835;SDS011;3963;42.658;23.298;2023-09-18T11:26:10;9.65;;;5.93;;
7835;SDS011;3963;42.658;23.298;2023-09-18T11:28:37;8.82;;;5.50;;
7835;SDS011;3963;42.658;23.298;2023-09-18T11:31:04;8.80;;;5.82;;
7835;SDS011;3963;42.658;23.298;2023-09-18T11:33:33;7.60;;;5.27;;
7835;SDS011;3963;42.658;23.298;2023-09-18T11:36:03;11.10;;;5.87;;
7835;SDS011;3963;42.658;23.298;2023-09-18T11:38:52;11.20;;;5.77;;
7835;SDS011;3963;42.658;23.298;2023-09-18T11:41:21;6.53;;;5.20;;
7835;SDS011;3963;42.658;23.298;2023-09-18T11:43:50;7.57;;;6.00;;
7835;SDS011;3963;42.658;23.298;2023-09-18T11:46:20;8.13;;;6.07;;
7835;SDS011;3963;42.658;23.298;2023-09-18T11:48:48;7.30;;;5.73;;
7835;SDS011;3963;42.658;23.298;2023-09-18T11:51:24;6.70;;;6.00;;
7835;SDS011;3963;42.658;23.298;2023-09-18T11:53:52;8.67;;;6.17;;
7835;SDS011;3963;42.658;23.298;2023-09-18T11:56:20;9.40;;;5.00;;
7835;SDS011;3963;42.658;23.298;2023-09-18T11:58:47;7.03;;;5.30;;
7835;SDS011;3963;42.658;23.298;2023-09-18T12:01:15;7.97;;;5.57;;
7835;SDS011;3963;42.658;23.298;2023-09-18T12:03:42;6.27;;;5.17;;
7835;SDS011;3963;42.658;23.298;2023-09-18T12:06:10;7.10;;;5.33;;
7835;SDS011;3963;42.658;23.298;2023-09-18T12:08:40;6.13;;;5.33;;
7835;SDS011;3963;42.658;23.298;2023-09-18T12:11:07;7.07;;;5.60;;
7835;SDS011;3963;42.658;23.298;2023-09-18T12:13:34;7.57;;;5.53;;
7835;SDS011;3963;42.658;23.298;2023-09-18T12:16:01;10.40;;;5.40;;
7835;SDS011;3963;42.658;23.298;2023-09-18T12:18:31;8.40;;;5.20;;
7835;SDS011;3963;42.658;23.298;2023-09-18T12:21:00;6.23;;;5.13;;
7835;SDS011;3963;42.658;23.298;2023-09-18T12:23:36;8.30;;;5.37;;
7835;SDS011;3963;42.658;23.298;2023-09-18T12:26:05;7.50;;;5.50;;
7835;SDS011;3963;42.658;23.298;2023-09-18T12:28:33;6.70;;;5.50;;
7835;SDS011;3963;42.658;23.298;2023-09-18T12:31:01;5.93;;;4.83;;
7835;SDS011;3963;42.658;23.298;2023-09-18T12:33:33;7.10;;;5.57;;
7835;SDS011;3963;42.658;23.298;2023-09-18T12:36:01;7.13;;;5.33;;
7835;SDS011;3963;42.658;23.298;2023-09-18T12:38:30;11.40;;;6.40;;
7835;SDS011;3963;42.658;23.298;2023-09-18T12:40:58;7.37;;;5.97;;
7835;SDS011;3963;42.658;23.298;2023-09-18T12:43:34;8.37;;;5.33;;
7835;SDS011;3963;42.658;23.298;2023-09-18T12:46:02;9.83;;;5.67;;
7835;SDS011;3963;42.658;23.298;2023-09-18T12:48:31;7.90;;;5.67;;
7835;SDS011;3963;42.658;23.298;2023-09-18T12:51:04;9.80;;;6.07;;
7835;SDS011;3963;42.658;23.298;2023-09-18T12:53:31;7.77;;;5.50;;
7835;SDS011;3963;42.658;23.298;2023-09-18T12:56:05;8.20;;;6.37;;
7835;SDS011;3963;42.658;23.298;2023-09-18T12:58:34;8.20;;;5.43;;
7835;SDS011;3963;42.658;23.298;2023-09-18T13:01:04;8.23;;;5.40;;
7835;SDS011;3963;42.658;23.298;2023-09-18T13:03:35;10.93;;;6.37;;
7835;SDS011;3963;42.658;23.298;2023-09-18T13:06:07;7.20;;;6.00;;
7835;SDS011;3963;42.658;23.298;2023-09-18T13:08:37;11.20;;;6.07;;
7835;SDS011;3963;42.658;23.298;2023-09-18T13:11:05;7.27;;;5.60;;
7835;SDS011;3963;42.658;23.298;2023-09-18T13:13:34;7.13;;;6.07;;
7835;SDS011;3963;42.658;23.298;2023-09-18T13:16:04;7.17;;;5.57;;
7835;SDS011;3963;42.658;23.298;2023-09-18T13:18:31;7.47;;;5.63;;
7835;SDS011;3963;42.658;23.298;2023-09-18T13:20:58;7.57;;;5.93;;
7835;SDS011;3963;42.658;23.298;2023-09-18T13:23:29;7.63;;;5.07;;
7835;SDS011;3963;42.658;23.298;2023-09-18T13:26:00;7.67;;;5.23;;
7835;SDS011;3963;42.658;23.298;2023-09-18T13:28:27;9.80;;;6.23;;
7835;SDS011;3963;42.658;23.298;2023-09-18T13:30:57;9.73;;;6.00;;
7835;SDS011;3963;42.658;23.298;2023-09-18T13:33:24;5.90;;;5.13;;
7835;SDS011;3963;42.658;23.298;2023-09-18T13:35:52;6.77;;;5.57;;
7835;SDS011;3963;42.658;23.298;2023-09-18T13:38:21;8.37;;;5.50;;
7835;SDS011;3963;42.658;23.298;2023-09-18T13:40:48;7.33;;;5.30;;
7835;SDS011;3963;42.658;23.298;2023-09-18T13:43:15;9.33;;;5.87;;
7835;SDS011;3963;42.658;23.298;2023-09-18T13:45:44;7.10;;;5.30;;
7835;SDS011;3963;42.658;23.298;2023-09-18T13:48:13;8.93;;;6.07;;
7835;SDS011;3963;42.658;23.298;2023-09-18T13:50:40;8.20;;;5.47;;
7835;SDS011;3963;42.658;23.298;2023-09-18T13:53:08;6.37;;;5.20;;
7835;SDS011;3963;42.658;23.298;2023-09-18T13:55:34;7.27;;;5.57;;
7835;SDS011;3963;42.658;23.298;2023-09-18T13:58:01;6.40;;;5.47;;
7835;SDS011;3963;42.658;23.298;2023-09-18T14:00:29;7.63;;;5.90;;
7835;SDS011;3963;42.658;23.298;2023-09-18T14:02:56;9.60;;;5.83;;
7835;SDS011;3963;42.658;23.298;2023-09-18T14:05:25;9.67;;;5.97;;
7835;SDS011;3963;42.658;23.298;2023-09-18T14:07:55;7.90;;;4.83;;
7835;SDS011;3963;42.658;23.298;2023-09-18T14:10:25;12.60;;;6.63;;
7835;SDS011;3963;42.658;23.298;2023-09-18T14:12:52;7.43;;;5.47;;
7835;SDS011;3963;42.658;23.298;2023-09-18T14:15:19;8.07;;;5.50;;
7835;SDS011;3963;42.658;23.298;2023-09-18T14:17:46;6.70;;;5.43;;
7835;SDS011;3963;42.658;23.298;2023-09-18T14:20:13;9.77;;;5.77;;
7835;SDS011;3963;42.658;23.298;2023-09-18T14:22:44;9.57;;;5.70;;
7835;SDS011;3963;42.658;23.298;2023-09-18T14:25:14;6.33;;;5.40;;
7835;SDS011;3963;42.658;23.298;2023-09-18T14:27:41;10.10;;;6.00;;
7835;SDS011;3963;42.658;23.298;2023-09-18T14:30:08;9.53;;;5.33;;
7835;SDS011;3963;42.658;23.298;2023-09-18T14:32:37;10.43;;;5.83;;
7835;SDS011;3963;42.658;23.298;2023-09-18T14:35:04;7.80;;;5.77;;
7835;SDS011;3963;42.658;23.298;2023-09-18T14:37:33;5.90;;;5.30;;
7835;SDS011;3963;42.658;23.298;2023-09-18T14:40:01;7.50;;;6.13;;
7835;SDS011;3963;42.658;23.298;2023-09-18T14:42:29;10.70;;;5.20;;
7835;SDS011;3963;42.658;23.298;2023-09-18T14:44:56;6.17;;;5.53;;
7835;SDS011;3963;42.658;23.298;2023-09-18T14:47:22;7.70;;;5.33;;
7835;SDS011;3963;42.658;23.298;2023-09-18T14:49:49;8.93;;;5.70;;
7835;SDS011;3963;42.658;23.298;2023-09-18T14:52:16;7.63;;;5.20;;